Time;durP1;ratioP1;P1;durP2;ratioP2;P2;SDS_P1;SDS_P2;PMS_P1;PMS_P2;Temp;Humidity;BMP_temperature;BMP_pressure;BME280_temperature;BME280_humidity;BME280_pressure;Samples;Min_cycle;Max_cycle;Signal;HPM_P1;HPM_P2
2022/08/13 00:01:40;;;;;;;6.68;5.22;;;20.20;99.90;;;;;;5064115;28;20047;-56
2022/08/13 00:04:12;;;;;;;10.27;4.85;;;20.10;99.90;;;;;;5061255;28;20041;-58
2022/08/13 00:09:13;;;;;;;9.32;4.90;;;20.10;99.90;;;;;;5070002;28;20411;-52
2022/08/13 00:14:31;;;;;;;9.30;4.80;;;20.00;99.90;;;;;;5069532;28;20033;-59
2022/08/13 00:16:57;;;;;;;7.22;5.10;;;20.00;99.90;;;;;;5059422;28;20137;-58
2022/08/13 00:19:26;;;;;;;6.97;4.88;;;19.90;99.90;;;;;;5056999;28;20329;-58
2022/08/13 00:21:54;;;;;;;7.22;5.50;;;19.90;99.90;;;;;;5061543;28;20109;-56
2022/08/13 00:24:20;;;;;;;6.35;5.18;;;19.80;99.90;;;;;;5066558;28;20039;-53
2022/08/13 00:26:45;;;;;;;7.55;5.53;;;19.80;99.90;;;;;;5059530;28;20040;-55
2022/08/13 00:29:12;;;;;;;7.70;5.63;;;19.80;99.90;;;;;;5062848;28;20062;-55
2022/08/13 00:31:39;;;;;;;7.32;5.13;;;19.80;99.90;;;;;;5061993;28;20445;-54
2022/08/13 00:34:05;;;;;;;7.07;5.80;;;19.70;99.90;;;;;;5060764;28;20053;-54
2022/08/13 00:36:35;;;;;;;7.80;5.50;;;19.60;99.90;;;;;;5060927;28;20401;-57
2022/08/13 00:39:10;;;;;;;10.30;4.85;;;19.60;99.90;;;;;;5059937;28;20040;-57
2022/08/13 00:41:37;;;;;;;9.60;5.20;;;19.60;99.90;;;;;;5069205;28;20036;-57
2022/08/13 00:44:04;;;;;;;6.03;5.43;;;19.50;99.90;;;;;;5065793;28;20050;-57
2022/08/13 00:46:31;;;;;;;8.98;5.00;;;19.50;99.90;;;;;;5065803;28;20571;-55
2022/08/13 00:48:57;;;;;;;8.02;6.25;;;19.50;99.90;;;;;;5065319;28;20106;-56
2022/08/13 00:51:26;;;;;;;8.95;5.25;;;19.50;99.90;;;;;;5066817;28;20111;-57
2022/08/13 00:53:54;;;;;;;8.48;5.63;;;19.40;99.90;;;;;;5059153;28;20040;-56
2022/08/13 00:56:23;;;;;;;9.30;5.78;;;19.30;99.90;;;;;;5057181;28;20048;-56
2022/08/13 00:58:50;;;;;;;9.00;5.47;;;19.30;99.90;;;;;;5070168;28;20079;-58
2022/08/13 01:01:17;;;;;;;10.40;4.90;;;19.20;99.90;;;;;;5061863;28;20036;-55
2022/08/13 01:03:44;;;;;;;6.35;5.20;;;19.20;99.90;;;;;;5061774;28;20059;-56
2022/08/13 01:06:10;;;;;;;6.97;5.00;;;19.10;99.90;;;;;;5066858;28;20779;-56
2022/08/13 01:08:40;;;;;;;7.07;5.00;;;19.10;99.90;;;;;;5066244;28;20509;-55
2022/08/13 01:11:13;;;;;;;7.22;5.35;;;19.10;99.90;;;;;;5053618;28;20950;-52
2022/08/13 01:13:42;;;;;;;5.95;4.63;;;19.10;99.90;;;;;;5065495;28;20047;-55
2022/08/13 01:16:13;;;;;;;12.80;5.03;;;19.00;99.90;;;;;;5068408;28;20507;-55
2022/08/13 01:18:45;;;;;;;10.07;5.47;;;19.00;99.90;;;;;;5065483;28;20047;-57
2022/08/13 01:21:15;;;;;;;5.90;5.28;;;19.00;99.90;;;;;;5063782;28;20045;-54
2022/08/13 01:23:45;;;;;;;5.93;4.90;;;18.90;99.90;;;;;;5065821;28;20373;-56
2022/08/13 01:26:16;;;;;;;7.32;5.50;;;18.90;99.90;;;;;;5067986;28;20494;-54
2022/08/13 01:28:43;;;;;;;6.18;4.97;;;18.90;99.90;;;;;;5051924;28;20059;-56
2022/08/13 01:31:11;;;;;;;8.32;5.60;;;18.80;99.90;;;;;;5069127;28;20036;-56
2022/08/13 01:33:36;;;;;;;6.57;5.00;;;18.80;99.90;;;;;;5065392;28;20055;-57
2022/08/13 01:36:07;;;;;;;6.53;5.72;;;18.80;99.90;;;;;;5062312;28;20036;-56
2022/08/13 01:38:34;;;;;;;8.70;6.15;;;18.80;99.90;;;;;;5064409;28;20040;-56
2022/08/13 01:41:04;;;;;;;8.20;5.70;;;18.80;99.90;;;;;;5053364;28;20514;-56
2022/08/13 01:43:31;;;;;;;6.72;5.35;;;18.70;99.90;;;;;;5056360;28;20032;-56
2022/08/13 01:46:01;;;;;;;10.10;6.25;;;18.70;99.90;;;;;;5066143;28;20578;-57
2022/08/13 01:51:21;;;;;;;8.20;6.20;;;18.70;99.90;;;;;;5069193;28;20107;-56
2022/08/13 01:54:00;;;;;;;11.73;6.93;;;18.70;99.90;;;;;;5067403;28;20066;-57
2022/08/13 01:56:28;;;;;;;8.57;6.38;;;18.70;99.90;;;;;;5068233;28;20097;-56
2022/08/13 01:59:00;;;;;;;8.15;6.22;;;18.70;99.90;;;;;;5063705;28;20071;-57
2022/08/13 02:01:26;;;;;;;10.60;7.00;;;18.60;99.90;;;;;;5069233;28;20092;-56
2022/08/13 02:03:53;;;;;;;13.73;6.70;;;18.60;99.90;;;;;;5062507;28;20432;-56
2022/08/13 02:06:30;;;;;;;9.32;6.78;;;18.60;99.90;;;;;;5072859;28;20037;-57
2022/08/13 02:08:59;;;;;;;7.47;6.72;;;18.50;99.90;;;;;;5069529;28;20078;-57
2022/08/13 02:11:36;;;;;;;12.30;6.70;;;18.50;99.90;;;;;;5071584;28;20126;-56
2022/08/13 02:14:03;;;;;;;7.25;5.82;;;18.50;99.90;;;;;;5067978;28;20131;-57
2022/08/13 02:16:37;;;;;;;8.25;6.70;;;18.50;99.90;;;;;;5068329;28;20086;-56
2022/08/13 02:19:05;;;;;;;8.05;6.30;;;18.50;99.90;;;;;;5062563;28;20402;-54
2022/08/13 02:21:39;;;;;;;8.55;6.70;;;18.40;99.90;;;;;;5069110;28;20049;-56
2022/08/13 02:24:13;;;;;;;6.82;6.07;;;18.40;99.90;;;;;;5071909;28;20036;-56
2022/08/13 02:26:42;;;;;;;7.50;6.70;;;18.40;99.90;;;;;;5074092;28;20208;-55
2022/08/13 02:29:09;;;;;;;11.95;6.28;;;18.40;99.90;;;;;;5051077;28;20278;-56
2022/08/13 02:31:35;;;;;;;7.78;5.70;;;18.30;99.90;;;;;;5065622;28;20271;-56
2022/08/13 02:34:01;;;;;;;9.88;6.35;;;18.30;99.90;;;;;;5075401;28;20577;-56
2022/08/13 02:36:28;;;;;;;8.10;6.78;;;18.30;99.90;;;;;;5063245;28;20043;-53
2022/08/13 02:38:59;;;;;;;8.50;6.18;;;18.30;99.90;;;;;;5071216;28;20518;-54
2022/08/13 02:41:43;;;;;;;11.10;6.78;;;18.30;99.90;;;;;;5069019;28;20043;-55
2022/08/13 02:44:16;;;;;;;7.90;6.30;;;18.30;99.90;;;;;;5043311;28;20044;-56
2022/08/13 02:46:49;;;;;;;10.20;6.57;;;18.30;99.90;;;;;;5063202;28;20052;-55
2022/08/13 02:49:21;;;;;;;9.43;5.77;;;18.30;99.90;;;;;;5070126;28;20042;-56
2022/08/13 02:51:49;;;;;;;9.02;6.10;;;18.30;99.90;;;;;;5080639;28;20177;-57
2022/08/13 02:54:20;;;;;;;8.05;5.18;;;18.20;99.90;;;;;;5061389;28;20040;-54
2022/08/13 02:56:46;;;;;;;9.27;6.00;;;18.20;99.90;;;;;;5052396;28;20463;-56
2022/08/13 02:59:13;;;;;;;9.10;5.88;;;18.20;99.90;;;;;;5072432;28;20032;-56
2022/08/13 03:01:40;;;;;;;6.15;4.95;;;18.30;99.90;;;;;;5064568;28;20044;-55
2022/08/13 03:04:09;;;;;;;8.25;6.20;;;18.20;99.90;;;;;;5042828;28;20059;-56
2022/08/13 03:06:36;;;;;;;6.97;5.82;;;18.20;99.90;;;;;;5063526;28;20040;-56
2022/08/13 03:09:03;;;;;;;7.85;5.80;;;18.20;99.90;;;;;;5045660;28;20119;-56
2022/08/13 03:11:29;;;;;;;9.73;5.03;;;18.20;99.90;;;;;;5066155;28;20071;-55
2022/08/13 03:14:05;;;;;;;7.75;5.32;;;18.20;99.90;;;;;;5068431;28;20032;-56
2022/08/13 03:16:33;;;;;;;10.02;6.10;;;18.10;99.90;;;;;;5062427;28;20498;-58
2022/08/13 03:18:59;;;;;;;11.13;6.38;;;18.10;99.90;;;;;;5066739;28;20040;-54
2022/08/13 03:21:32;;;;;;;7.38;5.57;;;18.10;99.90;;;;;;5062748;28;20098;-55
2022/08/13 03:23:59;;;;;;;5.38;4.88;;;18.10;99.90;;;;;;5070801;28;20043;-55
2022/08/13 03:26:25;;;;;;;7.78;5.90;;;18.10;99.90;;;;;;5075894;28;20048;-56
2022/08/13 03:28:51;;;;;;;7.60;5.80;;;18.10;99.90;;;;;;5071237;28;20043;-56
2022/08/13 03:31:22;;;;;;;8.25;5.00;;;18.10;99.90;;;;;;5076514;28;20063;-56
2022/08/13 03:33:47;;;;;;;8.00;6.10;;;18.10;99.90;;;;;;5072496;28;20044;-56
2022/08/13 03:36:14;;;;;;;8.07;5.45;;;18.10;99.90;;;;;;5060505;28;20072;-55
2022/08/13 03:38:40;;;;;;;6.43;5.20;;;18.10;99.90;;;;;;5061611;28;20493;-55
2022/08/13 03:41:12;;;;;;;7.72;6.15;;;18.00;99.90;;;;;;5048481;28;20122;-54
2022/08/13 03:43:44;;;;;;;7.22;4.78;;;18.00;99.90;;;;;;5078441;28;20052;-57
2022/08/13 03:46:16;;;;;;;6.65;5.63;;;18.00;99.90;;;;;;5071362;22;20044;-55
2022/08/13 03:48:43;;;;;;;7.65;5.45;;;18.00;99.90;;;;;;5031529;28;20068;-57
2022/08/13 03:51:11;;;;;;;7.15;5.50;;;18.00;99.90;;;;;;5040865;28;20079;-56
2022/08/13 03:53:38;;;;;;;5.70;5.03;;;18.00;99.90;;;;;;5028051;28;20049;-54
2022/08/13 03:56:07;;;;;;;6.63;5.10;;;17.90;99.90;;;;;;5024234;28;20128;-57
2022/08/13 03:58:33;;;;;;;7.03;5.90;;;17.90;99.90;;;;;;5014026;28;20194;-54
2022/08/13 04:01:01;;;;;;;6.88;5.95;;;17.90;99.90;;;;;;5019012;28;20549;-54
2022/08/13 04:03:36;;;;;;;6.47;5.57;;;17.90;99.90;;;;;;5010344;28;20317;-58
2022/08/13 04:06:16;;;;;;;8.25;5.38;;;17.90;99.90;;;;;;5030435;28;20119;-54
2022/08/13 04:08:44;;;;;;;10.25;5.57;;;17.80;99.90;;;;;;5028033;28;20060;-54
2022/08/13 04:11:12;;;;;;;9.07;5.68;;;17.70;99.90;;;;;;5036161;28;20064;-53
2022/08/13 04:13:39;;;;;;;9.95;6.05;;;17.70;99.90;;;;;;5033072;28;20542;-57
2022/08/13 04:16:26;;;;;;;8.65;5.63;;;17.70;99.90;;;;;;5033294;28;20514;-56
2022/08/13 04:18:52;;;;;;;6.60;5.70;;;17.60;99.90;;;;;;5032282;28;20085;-55
2022/08/13 04:21:19;;;;;;;10.05;6.18;;;17.60;99.90;;;;;;5028790;28;20045;-56
2022/08/13 04:23:46;;;;;;;7.53;5.20;;;17.60;99.90;;;;;;5025199;28;20376;-57
2022/08/13 04:26:15;;;;;;;8.77;6.13;;;17.60;99.90;;;;;;5024259;28;20407;-54
2022/08/13 04:28:43;;;;;;;7.15;5.72;;;17.60;99.90;;;;;;5028382;28;20049;-54
2022/08/13 04:31:10;;;;;;;7.57;5.25;;;17.50;99.90;;;;;;5029605;28;20033;-52
2022/08/13 04:33:36;;;;;;;8.20;5.68;;;17.50;99.90;;;;;;5026983;28;20511;-52
2022/08/13 04:36:03;;;;;;;8.30;6.18;;;17.50;99.90;;;;;;5049237;28;20097;-56
2022/08/13 04:38:29;;;;;;;8.88;5.70;;;17.50;99.90;;;;;;5033545;28;20131;-52
2022/08/13 04:40:56;;;;;;;7.70;5.50;;;17.50;99.90;;;;;;5028770;28;20052;-55
2022/08/13 04:43:22;;;;;;;7.55;5.93;;;17.50;99.90;;;;;;5028735;28;20122;-55
2022/08/13 04:45:48;;;;;;;7.68;5.20;;;17.50;99.90;;;;;;5024683;28;20082;-55
2022/08/13 04:48:15;;;;;;;8.55;5.78;;;17.50;99.90;;;;;;5028978;28;20049;-54
2022/08/13 04:50:43;;;;;;;6.95;5.80;;;17.50;99.90;;;;;;5030723;28;20103;-54
2022/08/13 04:53:34;;;;;;;12.50;5.55;;;17.50;99.90;;;;;;5025278;28;20038;-56
2022/08/13 04:56:01;;;;;;;8.35;5.50;;;17.60;99.90;;;;;;5020100;28;20037;-57
2022/08/13 04:58:33;;;;;;;7.97;5.38;;;17.60;99.90;;;;;;5026799;28;20129;-57
2022/08/13 05:00:59;;;;;;;10.10;5.18;;;17.60;99.90;;;;;;5027576;28;20045;-52
2022/08/13 05:03:26;;;;;;;9.60;5.43;;;17.60;99.90;;;;;;5030447;28;20103;-57
2022/08/13 05:05:52;;;;;;;6.35;5.10;;;17.60;99.90;;;;;;5030830;28;20041;-54
2022/08/13 05:08:19;;;;;;;9.18;5.53;;;17.60;99.90;;;;;;5032338;28;20033;-54
2022/08/13 05:10:47;;;;;;;5.05;4.20;;;17.70;99.90;;;;;;5035669;28;20036;-56
2022/08/13 05:13:30;;;;;;;8.77;5.38;;;17.70;99.90;;;;;;5036745;28;20033;-56
2022/08/13 05:16:00;;;;;;;7.15;4.82;;;17.70;99.90;;;;;;5040442;28;20123;-55
2022/08/13 05:18:27;;;;;;;7.03;5.13;;;17.80;99.90;;;;;;5034247;28;20088;-56
2022/08/13 05:20:55;;;;;;;5.63;4.28;;;17.80;99.90;;;;;;5031557;28;20037;-56
2022/08/13 05:23:22;;;;;;;8.48;5.68;;;17.80;99.90;;;;;;5034678;28;20610;-54
2022/08/13 05:25:49;;;;;;;11.70;5.88;;;17.90;99.90;;;;;;5031716;28;20148;-56
2022/08/13 05:28:17;;;;;;;9.15;5.38;;;17.80;99.90;;;;;;5035218;28;20116;-55
2022/08/13 05:30:46;;;;;;;9.65;5.70;;;17.90;99.90;;;;;;5036048;28;20045;-54
2022/08/13 05:33:24;;;;;;;9.80;5.13;;;18.00;99.90;;;;;;5036528;28;20072;-55
2022/08/13 05:35:56;;;;;;;8.10;4.57;;;18.00;99.90;;;;;;5033230;28;20041;-55
2022/08/13 05:38:24;;;;;;;7.72;4.53;;;18.10;99.90;;;;;;5023040;28;20507;-54
2022/08/13 05:40:52;;;;;;;6.43;4.60;;;18.20;99.90;;;;;;5036905;28;20106;-56
2022/08/13 05:43:21;;;;;;;5.78;5.03;;;18.20;99.90;;;;;;5038979;28;20222;-56
2022/08/13 05:45:59;;;;;;;6.55;4.53;;;18.30;99.90;;;;;;5015722;28;20518;-58
2022/08/13 05:48:26;;;;;;;5.55;4.13;;;18.40;99.90;;;;;;5016208;28;20465;-54
2022/08/13 05:50:52;;;;;;;8.05;4.30;;;18.40;99.90;;;;;;5027505;28;20045;-52
2022/08/13 05:53:18;;;;;;;10.45;4.63;;;18.50;99.90;;;;;;5041722;28;20037;-53
2022/08/13 05:55:44;;;;;;;8.35;5.18;;;18.60;99.90;;;;;;5043928;28;20051;-52
2022/08/13 05:58:12;;;;;;;7.53;4.93;;;18.70;99.90;;;;;;5026184;28;20045;-52
2022/08/13 06:03:26;;;;;;;7.82;4.97;;;18.90;99.90;;;;;;5028831;28;20053;-52
2022/08/13 06:05:57;;;;;;;6.95;4.40;;;19.00;99.90;;;;;;5032299;28;20037;-53
2022/08/13 06:08:30;;;;;;;5.68;3.97;;;19.10;99.90;;;;;;5028636;28;20315;-54
2022/08/13 06:10:57;;;;;;;7.43;4.38;;;19.20;99.90;;;;;;5038915;28;20080;-55
2022/08/13 06:13:24;;;;;;;7.22;4.72;;;19.30;99.90;;;;;;5035931;28;20037;-57
2022/08/13 06:15:57;;;;;;;5.28;4.68;;;19.40;99.90;;;;;;5015901;28;20499;-57
2022/08/13 06:18:29;;;;;;;6.80;3.97;;;19.50;99.90;;;;;;5031049;28;20162;-57
2022/08/13 06:20:56;;;;;;;7.10;3.95;;;19.60;99.90;;;;;;5035723;28;20099;-56
2022/08/13 06:23:28;;;;;;;4.13;3.70;;;19.80;99.90;;;;;;5028949;28;20041;-57
2022/08/13 06:25:55;;;;;;;6.30;3.88;;;19.90;99.90;;;;;;5033941;28;20511;-56
2022/08/13 06:28:25;;;;;;;8.05;4.25;;;20.00;99.90;;;;;;5015085;28;20077;-56
2022/08/13 06:30:54;;;;;;;5.63;4.10;;;20.10;99.90;;;;;;5032492;28;20491;-53
2022/08/13 06:33:23;;;;;;;7.53;4.10;;;20.20;99.90;;;;;;5032183;28;20045;-56
2022/08/13 06:36:09;;;;;;;6.15;3.58;;;20.30;99.90;;;;;;5030466;28;20306;-56
2022/08/13 06:38:48;;;;;;;8.10;4.00;;;20.40;99.90;;;;;;5028683;28;20049;-56
2022/08/13 06:41:15;;;;;;;6.32;3.75;;;20.50;99.90;;;;;;5038892;28;20029;-56
2022/08/13 06:43:51;;;;;;;4.88;3.88;;;20.60;99.90;;;;;;5015067;28;20055;-56
2022/08/13 06:46:21;;;;;;;7.03;3.97;;;20.70;99.90;;;;;;5030508;28;20064;-56
2022/08/13 06:48:47;;;;;;;6.35;3.25;;;20.80;99.50;;;;;;5027906;28;20049;-56
2022/08/13 06:51:13;;;;;;;6.97;3.28;;;20.90;99.30;;;;;;5011963;28;20060;-57
2022/08/13 06:53:42;;;;;;;6.35;3.65;;;21.10;99.30;;;;;;5027528;28;20048;-58
2022/08/13 06:56:14;;;;;;;5.50;3.13;;;21.20;99.30;;;;;;5028626;28;20079;-56
2022/08/13 06:58:46;;;;;;;6.00;3.33;;;21.30;99.30;;;;;;5030497;28;20079;-57
2022/08/13 07:01:19;;;;;;;4.55;3.22;;;21.40;99.10;;;;;;5026260;28;20049;-55
2022/08/13 07:03:45;;;;;;;;;;;21.50;99.00;;;;;;5030856;28;20037;-56
2022/08/13 07:06:16;;;;;;;6.88;3.10;;;21.60;99.10;;;;;;5031787;28;19921;-58
2022/08/13 07:08:43;;;;;;;4.90;2.92;;;21.70;98.90;;;;;;5028646;28;20058;-54
2022/08/13 07:11:21;;;;;;;4.40;3.25;;;21.80;98.70;;;;;;5011620;28;20081;-54
2022/08/13 07:13:50;;;;;;;8.13;3.25;;;21.90;98.70;;;;;;5016617;28;20045;-59
2022/08/13 07:16:16;;;;;;;6.03;2.75;;;22.10;98.50;;;;;;5026684;28;20451;-57
2022/08/13 07:18:46;;;;;;;7.05;2.80;;;22.20;98.00;;;;;;5028859;28;20132;-57
2022/08/13 07:21:15;;;;;;;9.02;3.13;;;22.40;97.80;;;;;;5008455;28;20136;-56
2022/08/13 07:23:42;;;;;;;5.60;2.58;;;22.50;97.40;;;;;;5011026;28;20049;-58
2022/08/13 07:26:10;;;;;;;5.13;2.80;;;22.60;97.00;;;;;;5013077;28;20484;-58
2022/08/13 07:28:36;;;;;;;6.80;2.63;;;22.60;96.90;;;;;;5031053;28;20645;-57
2022/08/13 07:31:06;;;;;;;4.15;2.58;;;22.80;96.50;;;;;;5026801;28;20123;-57
2022/08/13 07:33:38;;;;;;;5.47;2.42;;;22.90;95.90;;;;;;5031707;28;20040;-57
2022/08/13 07:36:10;;;;;;;5.47;2.33;;;23.10;95.90;;;;;;5030484;28;20072;-60
2022/08/13 07:38:36;;;;;;;4.07;2.00;;;23.30;95.70;;;;;;5030397;28;20560;-58
2022/08/13 07:41:03;;;;;;;4.43;3.15;;;23.40;95.60;;;;;;5027788;28;20041;-57
2022/08/13 07:43:39;;;;;;;5.63;2.00;;;23.50;95.50;;;;;;5027120;28;20091;-59
2022/08/13 07:46:12;;;;;;;3.13;2.38;;;23.60;95.40;;;;;;5034196;28;20152;-62
2022/08/13 07:48:40;;;;;;;3.42;2.20;;;23.70;94.90;;;;;;5017428;28;20045;-58
2022/08/13 07:51:12;;;;;;;3.78;1.80;;;23.80;94.70;;;;;;5030568;28;20071;-58
2022/08/13 07:53:39;;;;;;;3.45;1.92;;;23.90;94.60;;;;;;5027731;28;20558;-57
2022/08/13 07:56:06;;;;;;;8.63;2.60;;;24.10;94.40;;;;;;5005549;28;20099;-58
2022/08/13 07:58:35;;;;;;;5.32;1.88;;;24.10;94.30;;;;;;5032297;28;20040;-57
2022/08/13 08:01:06;;;;;;;6.03;2.58;;;24.20;94.00;;;;;;5031802;28;23194;-59
2022/08/13 08:03:42;;;;;;;4.30;2.10;;;24.30;93.80;;;;;;5032232;28;20059;-56
2022/08/13 08:06:10;;;;;;;4.88;2.13;;;24.50;93.50;;;;;;5015313;28;20444;-56
2022/08/13 08:08:39;;;;;;;4.80;1.98;;;24.60;92.80;;;;;;5031032;28;20037;-56
2022/08/13 08:11:08;;;;;;;4.47;1.98;;;24.80;92.40;;;;;;5030868;28;20051;-57
2022/08/13 08:13:35;;;;;;;6.28;2.38;;;24.90;92.50;;;;;;5031270;28;20037;-57
2022/08/13 08:16:03;;;;;;;5.72;2.13;;;25.00;92.20;;;;;;5032054;28;20044;-54
2022/08/13 08:18:30;;;;;;;3.17;2.05;;;25.10;92.10;;;;;;5015763;28;20064;-58
2022/08/13 08:21:07;;;;;;;7.40;2.75;;;25.20;91.30;;;;;;5012077;28;20102;-55
2022/08/13 08:23:37;;;;;;;2.97;2.15;;;25.30;90.70;;;;;;5013752;28;20076;-55
2022/08/13 08:26:07;;;;;;;3.30;2.10;;;25.50;91.00;;;;;;5014214;28;20140;-56
2022/08/13 08:28:34;;;;;;;4.88;1.83;;;25.60;91.10;;;;;;5028424;28;20127;-56
2022/08/13 08:31:00;;;;;;;3.60;1.70;;;25.70;90.80;;;;;;5027595;28;21888;-57
2022/08/13 08:33:27;;;;;;;6.05;2.10;;;25.80;90.70;;;;;;5032447;28;20548;-57
2022/08/13 08:35:56;;;;;;;6.70;2.00;;;26.00;90.50;;;;;;5034037;28;20480;-59
2022/08/13 08:43:56;;;;;;;3.95;1.70;;;26.30;89.60;;;;;;5029000;28;20045;-56
2022/08/13 08:46:24;;;;;;;4.50;2.15;;;26.30;88.30;;;;;;5026024;28;20052;-58
2022/08/13 08:48:55;;;;;;;3.00;1.48;;;26.40;88.90;;;;;;5026306;28;20464;-56
2022/08/13 08:51:21;;;;;;;7.68;1.70;;;26.60;88.80;;;;;;5027239;28;20085;-56
2022/08/13 08:53:49;;;;;;;2.55;1.58;;;26.80;88.40;;;;;;5026265;28;20545;-56
2022/08/13 08:56:20;;;;;;;3.72;1.70;;;26.90;86.00;;;;;;5026155;28;20153;-56
2022/08/13 08:58:47;;;;;;;3.13;1.60;;;27.00;85.50;;;;;;5031412;28;20475;-57
2022/08/13 09:01:12;;;;;;;2.17;1.40;;;27.00;83.40;;;;;;5015124;28;20056;-56
2022/08/13 09:03:48;;;;;;;3.53;1.50;;;27.10;83.60;;;;;;5029262;28;20042;-56
2022/08/13 09:06:15;;;;;;;3.20;1.75;;;27.20;85.00;;;;;;5029113;28;20068;-58
2022/08/13 09:08:41;;;;;;;4.47;1.77;;;27.30;83.30;;;;;;5029172;28;20148;-58
2022/08/13 09:11:07;;;;;;;4.28;1.80;;;27.30;80.90;;;;;;5028425;28;20052;-59
2022/08/13 09:13:34;;;;;;;3.80;1.60;;;27.40;82.10;;;;;;5034292;28;20041;-59
2022/08/13 09:16:01;;;;;;;13.15;1.90;;;27.50;82.80;;;;;;5027539;28;20037;-58
2022/08/13 09:18:28;;;;;;;2.25;1.50;;;27.70;82.00;;;;;;5016632;28;20064;-57
2022/08/13 09:20:53;;;;;;;3.38;1.60;;;27.70;80.20;;;;;;5029770;28;20150;-58
2022/08/13 09:23:21;;;;;;;3.70;1.55;;;27.90;80.00;;;;;;5026043;28;20044;-58
2022/08/13 09:25:51;;;;;;;5.50;1.50;;;27.90;79.40;;;;;;5035091;28;20049;-57
2022/08/13 09:28:26;;;;;;;3.10;1.40;;;28.00;78.20;;;;;;5036106;28;20613;-58
2022/08/13 09:30:53;;;;;;;1.98;1.40;;;28.10;76.70;;;;;;5024022;28;20037;-58
2022/08/13 09:33:23;;;;;;;7.28;1.98;;;28.20;77.20;;;;;;5031233;28;20041;-57
2022/08/13 09:35:51;;;;;;;3.25;1.60;;;28.30;77.60;;;;;;5026410;28;20033;-58
2022/08/13 09:38:22;;;;;;;2.47;1.52;;;28.30;75.70;;;;;;5009020;28;20049;-58
2022/08/13 09:40:55;;;;;;;3.65;1.60;;;28.40;74.20;;;;;;5027310;28;20139;-58
2022/08/13 09:43:31;;;;;;;2.92;1.30;;;28.50;72.70;;;;;;5026931;28;20100;-58
2022/08/13 09:45:57;;;;;;;5.97;1.45;;;28.60;72.50;;;;;;5012094;28;20114;-58
2022/08/13 09:48:24;;;;;;;3.35;1.30;;;28.60;70.50;;;;;;5051466;22;20068;-56
2022/08/13 09:50:52;;;;;;;5.95;1.40;;;28.70;71.00;;;;;;5018690;28;20403;-55
2022/08/13 09:53:18;;;;;;;4.93;1.48;;;28.80;69.60;;;;;;5022812;28;20046;-58
2022/08/13 09:55:45;;;;;;;3.22;1.52;;;28.90;70.80;;;;;;4994601;28;20071;-58
2022/08/13 09:58:11;;;;;;;5.28;1.20;;;29.10;69.40;;;;;;5031458;28;20048;-58
2022/08/13 10:00:37;;;;;;;4.00;1.40;;;29.10;69.80;;;;;;5038549;28;20060;-58
2022/08/13 10:03:09;;;;;;;3.75;1.30;;;29.20;66.80;;;;;;5037102;28;20084;-57
2022/08/13 10:05:35;;;;;;;8.38;1.60;;;29.30;65.40;;;;;;5041297;28;20403;-58
2022/08/13 10:08:03;;;;;;;4.32;1.35;;;29.20;65.60;;;;;;5028220;28;20107;-58
2022/08/13 10:10:29;;;;;;;4.13;1.50;;;29.20;64.70;;;;;;5044760;28;20380;-59
2022/08/13 10:12:57;;;;;;;2.70;1.50;;;29.30;64.60;;;;;;5038265;28;20566;-58
2022/08/13 10:15:23;;;;;;;2.33;1.02;;;29.40;63.60;;;;;;5038599;28;20041;-59
2022/08/13 10:17:57;;;;;;;4.75;1.40;;;29.50;63.80;;;;;;5030832;28;20114;-58
2022/08/13 10:20:32;;;;;;;2.17;1.20;;;29.50;65.00;;;;;;5034197;28;20052;-58
2022/08/13 10:22:59;;;;;;;3.65;1.35;;;29.60;63.10;;;;;;5032545;28;20542;-57
2022/08/13 10:25:27;;;;;;;4.32;1.40;;;29.60;62.50;;;;;;5043015;28;20037;-59
2022/08/13 10:27:53;;;;;;;2.45;1.10;;;29.70;61.90;;;;;;5030857;28;20085;-60
2022/08/13 10:30:22;;;;;;;4.15;1.30;;;29.70;61.70;;;;;;5041261;28;20040;-58
2022/08/13 10:32:47;;;;;;;4.50;1.40;;;29.70;61.90;;;;;;5019153;28;20052;-59
2022/08/13 10:35:17;;;;;;;3.25;1.20;;;29.70;60.70;;;;;;5041483;28;20400;-54
2022/08/13 10:37:51;;;;;;;4.05;1.33;;;29.70;61.40;;;;;;5035921;28;20499;-58
2022/08/13 10:40:17;;;;;;;3.13;1.35;;;29.80;60.90;;;;;;5042278;28;20044;-57
2022/08/13 10:42:44;;;;;;;3.70;1.25;;;29.90;61.00;;;;;;5045326;28;20439;-60
2022/08/13 10:45:14;;;;;;;2.55;1.30;;;29.90;60.70;;;;;;5040293;28;20036;-54
2022/08/13 10:47:51;;;;;;;1.88;1.27;;;30.10;61.40;;;;;;5031614;28;20041;-57
2022/08/13 10:50:26;;;;;;;1.80;1.20;;;30.20;61.90;;;;;;5056783;28;20412;-59
2022/08/13 10:52:52;;;;;;;2.47;1.30;;;30.30;60.10;;;;;;5024727;28;20110;-58
2022/08/13 10:55:18;;;;;;;3.80;1.30;;;30.30;60.60;;;;;;5043354;28;20101;-58
2022/08/13 10:57:45;;;;;;;3.25;1.08;;;30.40;60.80;;;;;;5023785;28;20531;-58
2022/08/13 11:00:14;;;;;;;1.90;1.20;;;30.50;60.70;;;;;;5040922;28;20048;-60
2022/08/13 11:02:40;;;;;;;4.88;1.50;;;30.50;59.80;;;;;;5037809;28;20279;-60
2022/08/13 11:05:08;;;;;;;3.17;1.30;;;30.60;60.30;;;;;;5045234;28;20049;-59
2022/08/13 11:07:36;;;;;;;2.42;1.40;;;30.80;59.50;;;;;;5037549;28;20051;-58
2022/08/13 11:10:05;;;;;;;1.75;1.30;;;30.80;60.00;;;;;;5042832;28;20079;-59
2022/08/13 11:12:33;;;;;;;3.78;1.30;;;30.90;59.20;;;;;;5023355;28;20064;-59
2022/08/13 11:15:00;;;;;;;2.78;1.42;;;31.00;59.90;;;;;;5036508;28;20077;-59
2022/08/13 11:17:26;;;;;;;2.40;1.33;;;31.10;58.40;;;;;;5040564;28;20040;-58
2022/08/13 11:19:53;;;;;;;1.77;1.25;;;31.00;58.30;;;;;;5030089;28;20048;-60
2022/08/13 11:22:28;;;;;;;2.08;1.30;;;31.10;58.20;;;;;;5042881;28;20075;-60
2022/08/13 11:24:59;;;;;;;3.63;1.50;;;31.20;58.70;;;;;;5043166;28;20136;-59
2022/08/13 11:27:25;;;;;;;4.50;1.52;;;31.30;58.00;;;;;;5045498;28;20459;-60
2022/08/13 11:29:55;;;;;;;3.65;1.50;;;31.30;57.70;;;;;;5021120;28;20033;-59
2022/08/13 11:32:21;;;;;;;4.60;1.40;;;31.30;56.60;;;;;;5024514;28;20492;-58
2022/08/13 11:34:47;;;;;;;3.63;1.40;;;31.30;56.30;;;;;;5043309;28;20091;-59
2022/08/13 11:37:13;;;;;;;2.72;1.95;;;31.30;56.10;;;;;;5042218;28;20106;-60
2022/08/13 11:39:39;;;;;;;2.55;1.58;;;31.20;54.50;;;;;;5035608;28;20036;-59
2022/08/13 11:42:05;;;;;;;3.63;1.20;;;31.30;56.10;;;;;;5045408;28;20032;-60
2022/08/13 11:44:30;;;;;;;2.72;1.30;;;31.20;54.90;;;;;;5038376;28;20039;-58
2022/08/13 11:46:56;;;;;;;1.92;1.25;;;31.30;55.50;;;;;;5036946;28;20037;-57
2022/08/13 11:49:22;;;;;;;2.05;1.20;;;31.50;55.50;;;;;;5026361;28;20469;-58
2022/08/13 11:51:48;;;;;;;4.18;1.20;;;31.60;55.00;;;;;;5040920;28;20495;-57
2022/08/13 11:54:14;;;;;;;4.30;1.05;;;31.70;54.60;;;;;;5037081;28;20466;-58
2022/08/13 11:56:40;;;;;;;2.88;1.20;;;31.80;54.70;;;;;;5043809;28;20039;-58
2022/08/13 11:59:07;;;;;;;4.80;1.30;;;31.80;53.40;;;;;;5026870;28;20044;-59
2022/08/13 12:01:32;;;;;;;1.85;1.33;;;32.00;54.30;;;;;;5039238;28;20510;-58
2022/08/13 12:03:58;;;;;;;3.90;1.20;;;32.10;53.00;;;;;;5032125;28;20044;-59
2022/08/13 12:06:24;;;;;;;2.22;1.10;;;32.20;52.90;;;;;;5028795;28;20381;-58
2022/08/13 12:08:50;;;;;;;2.40;1.13;;;32.20;53.80;;;;;;5033326;28;20401;-57
2022/08/13 12:11:16;;;;;;;4.05;1.15;;;32.40;54.30;;;;;;5036967;28;20231;-58
2022/08/13 12:13:42;;;;;;;1.92;1.48;;;32.50;53.00;;;;;;5035477;28;20095;-58
2022/08/13 12:16:08;;;;;;;3.22;1.20;;;32.50;51.00;;;;;;5034252;28;20041;-56
2022/08/13 12:18:34;;;;;;;4.65;1.27;;;32.30;50.50;;;;;;5038630;28;20082;-58
2022/08/13 12:21:00;;;;;;;2.20;1.40;;;32.20;51.30;;;;;;5040075;28;20040;-59
2022/08/13 12:23:25;;;;;;;4.25;1.30;;;32.20;51.00;;;;;;5037290;28;20041;-58
2022/08/13 12:25:51;;;;;;;3.38;1.15;;;32.20;52.20;;;;;;5038915;28;20120;-59
2022/08/13 12:28:19;;;;;;;1.42;1.20;;;32.30;53.10;;;;;;5022147;28;20124;-59
2022/08/13 12:30:47;;;;;;;2.47;1.17;;;32.40;50.50;;;;;;5020564;28;20044;-59
2022/08/13 12:33:14;;;;;;;2.53;1.20;;;32.40;50.80;;;;;;5031890;28;20041;-58
2022/08/13 12:35:40;;;;;;;1.08;1.00;;;32.60;50.70;;;;;;5028624;28;20538;-59
2022/08/13 12:38:08;;;;;;;3.10;1.23;;;32.60;51.00;;;;;;5019389;28;20049;-58
2022/08/13 12:40:33;;;;;;;1.83;1.08;;;32.70;50.50;;;;;;5021309;28;20098;-59
2022/08/13 12:42:59;;;;;;;2.15;1.10;;;32.70;50.00;;;;;;5044095;28;20053;-59
2022/08/13 12:45:25;;;;;;;1.20;1.10;;;32.80;49.80;;;;;;5031738;28;20045;-58
2022/08/13 12:47:50;;;;;;;4.38;1.23;;;32.70;49.30;;;;;;5041366;28;20124;-58
2022/08/13 12:50:19;;;;;;;4.32;1.40;;;32.70;50.60;;;;;;5038867;28;20037;-57
2022/08/13 12:52:45;;;;;;;1.63;1.33;;;32.70;50.20;;;;;;5038699;28;20051;-59
2022/08/13 12:55:12;;;;;;;3.55;1.27;;;32.70;51.10;;;;;;5038289;28;20037;-57
2022/08/13 12:57:38;;;;;;;4.60;1.40;;;32.70;50.90;;;;;;5021693;28;21355;-57
2022/08/13 13:00:10;;;;;;;1.70;1.35;;;32.70;50.20;;;;;;5042207;28;20245;-56
2022/08/13 13:02:39;;;;;;;3.03;1.35;;;32.70;51.10;;;;;;5033281;28;20415;-57
2022/08/13 13:05:06;;;;;;;1.60;1.33;;;32.70;50.60;;;;;;5034368;28;20048;-58
2022/08/13 13:07:32;;;;;;;1.80;1.38;;;32.80;50.00;;;;;;5033957;28;20492;-56
2022/08/13 13:09:59;;;;;;;3.72;1.48;;;32.90;51.00;;;;;;5029377;28;20102;-57